Airfield :
LOGIN :

Register | Disclaimer

   EN    FR    IT 

 










Legend :    VFR   Marginal VFR   IFR   Intensive IFR   Very Intensive IFR
Visi :
Ceiling :
>= 8 km
>= 3000ft
5 to 8 km
1000 to 3000 ft
1500m to 5 km
500 to 1000 ft
800 to 1500m
200 to 500 ft
< 800m
< 200 ft
Symbols :   Thunderstorms  Fog  Heavy snow  Heavy precipitations  Wind > 20 kt
SIGMETs :     Misc.  Thunderstorms  Icing  Turbulence  Mountain Waves  Volcanic Ashes







- Airport Elevation : 327 ft
- IATA code : BHX
- Download approach charts


EGBB - Birmingham

CURRENT METAR :
  • 162350Z 31011KT 9999 FEW030 16/13 Q1014

EXPIRED METARs :
  • 162320Z 31010KT 9999 BKN029 17/12 Q1014
  • 162250Z 30008KT 9999 BKN037 17/13 Q1014
  • 162220Z 32011KT 9999 SCT018 BKN035 18/13 Q1014
  • 162150Z 31011KT 9999 BKN032 19/14 Q1013
  • 162120Z 31010KT 9999 BKN021 19/14 Q1013
  • 162050Z 22004KT 170V260 9999 BKN023 18/15 Q1013

TAF TAF EGBB
Valid from the 17 at 00:00 until the 18 at 00:00 UTC


162254Z 1700/1724 29010KT 9999 FEW045
PROB30 1703/1707 8000
PROB30
TEMPO 1712/1720 8000 -SHRA
BECMG 1718/1721 VRB05KT
ATIS : +44 121 780 0910
No reported NOTAMs for that airfield.
1 SIGMET reported for the London FIR (EGTT) :
 
Embedded thunderstorms
EGTT SIGMET 07 VALID 162300/170200 EGRR
EGTT LONDON FIR EMBD TS FCST WI N5500 W00038 - N5413 E00006 - N5348 E00017 - N5351 W00022 - N5500 W00210 - N5500 W00038 TOP FL300 MOV NE 10KT NC=



MET'MAP, your aeronautical weather chart ! - Copyright ORBIFLY December 2007 - Disclaimer

ORBIFLY MET'MAP TEAM :

Programming & Development : Alexandra Zaïnal
Concept & Development : Baudouin d'Aumeries
Co-Development & Prog : Marc-Olivier Méhu
Technical & hardware support : Manuel Goepfert

Contact : metmap@orbifly.com




SOURCES & CREDITS :

   NOAA